Time;durP1;ratioP1;P1;durP2;ratioP2;P2;SDS_P1;SDS_P2;PMS_P1;PMS_P2;Temp;Humidity;BMP_temperature;BMP_pressure;BME280_temperature;BME280_humidity;BME280_pressure;Samples;Min_cycle;Max_cycle;Signal;HPM_P1;HPM_P2
2023/12/23 00:00:08;;;;;;;2.88;2.10;;;;;;;-1.99;72.70;96411.38;6094478;29;20055;-65
2023/12/23 00:03:14;;;;;;;2.97;1.95;;;;;;;-1.99;72.61;96417.38;6095916;29;20071;-67
2023/12/23 00:06:18;;;;;;;2.45;2.00;;;;;;;-1.88;71.49;96404.25;6081123;29;20498;-65
2023/12/23 00:09:19;;;;;;;2.35;2.05;;;;;;;-1.99;72.25;96401.91;6094284;29;20399;-65
2023/12/23 00:12:23;;;;;;;4.45;2.70;;;;;;;-2.05;72.55;96402.06;6095032;29;20387;-66
2023/12/23 00:15:24;;;;;;;3.25;2.40;;;;;;;-2.01;72.19;96395.94;6096490;29;20181;-66
2023/12/23 00:18:29;;;;;;;3.13;2.20;;;;;;;-1.97;72.50;96395.00;6096791;29;20045;-66
2023/12/23 00:21:35;;;;;;;2.83;2.05;;;;;;;-1.94;72.59;96389.78;6095932;29;20047;-66
2023/12/23 00:24:42;;;;;;;6.32;3.35;;;;;;;-1.87;72.37;96383.59;6097013;29;20417;-64
2023/12/23 00:27:45;;;;;;;4.65;2.70;;;;;;;-1.78;72.63;96376.50;6098072;29;20764;-65
2023/12/23 00:30:49;;;;;;;5.28;2.17;;;;;;;-1.76;72.55;96379.91;6091888;29;20044;-66
2023/12/23 00:33:53;;;;;;;3.03;1.95;;;;;;;-1.76;72.31;96369.59;6104742;29;20047;-66
2023/12/23 00:36:57;;;;;;;3.83;2.85;;;;;;;-1.76;71.92;96365.25;6081267;29;20506;-66
2023/12/23 00:40:00;;;;;;;2.80;2.35;;;;;;;-1.75;72.46;96368.72;6098120;29;20044;-66
2023/12/23 00:43:03;;;;;;;2.95;2.25;;;;;;;-1.69;72.27;96384.88;6096550;29;20139;-65
2023/12/23 00:46:07;;;;;;;3.17;2.47;;;;;;;-1.69;72.42;96378.88;6082815;29;20074;-66
2023/12/23 00:49:09;;;;;;;2.83;2.08;;;;;;;-1.67;72.16;96382.25;6097948;29;20066;-66
2023/12/23 00:52:12;;;;;;;3.03;2.20;;;;;;;-1.68;71.89;96370.25;6098060;29;20043;-66
2023/12/23 00:55:19;;;;;;;2.28;1.92;;;;;;;-1.69;72.32;96378.88;6094555;29;20036;-65
2023/12/23 00:58:23;;;;;;;8.30;5.47;;;;;;;-1.69;71.99;96374.56;6100117;29;20039;-65
2023/12/23 01:01:27;;;;;;;4.38;3.05;;;;;;;-1.70;71.87;96367.72;6095769;29;20064;-65
2023/12/23 01:04:32;;;;;;;3.70;2.88;;;;;;;-1.76;72.12;96356.69;6094363;29;20052;-65
2023/12/23 01:07:38;;;;;;;5.32;3.47;;;;;;;-1.74;71.70;96365.25;6097658;29;20044;-65
2023/12/23 01:10:43;;;;;;;6.13;3.30;;;;;;;-1.79;71.95;96367.91;6097432;29;20047;-65
2023/12/23 01:13:44;;;;;;;8.43;4.05;;;;;;;-1.79;71.49;96365.34;6094987;29;20048;-66
2023/12/23 01:16:46;;;;;;;13.18;4.50;;;;;;;-1.76;71.31;96361.84;6095251;29;20426;-66
2023/12/23 01:19:49;;;;;;;14.07;4.25;;;;;;;-1.80;72.19;96361.06;6094296;29;22169;-66
2023/12/23 01:22:57;;;;;;;18.40;4.82;;;;;;;-1.82;71.38;96355.94;6098810;29;20048;-65
2023/12/23 01:26:02;;;;;;;14.82;5.20;;;;;;;-1.85;71.98;96363.75;6087927;29;20036;-66
2023/12/23 01:29:04;;;;;;;12.25;5.03;;;;;;;-1.84;71.37;96360.31;6095074;29;20108;-67
2023/12/23 01:32:05;;;;;;;14.23;4.88;;;;;;;-1.89;71.77;96357.00;6097961;29;20043;-65
2023/12/23 01:35:12;;;;;;;18.20;5.40;;;;;;;-1.86;71.65;96356.91;6079682;29;20055;-66
2023/12/23 01:38:13;;;;;;;18.02;5.15;;;;;;;-1.77;71.67;96370.47;6095243;29;20275;-65
2023/12/23 01:41:18;;;;;;;16.60;5.38;;;;;;;-1.77;71.27;96365.31;6095691;29;20044;-65
2023/12/23 01:44:24;;;;;;;20.67;6.07;;;;;;;-1.83;71.46;96353.41;6097161;29;20036;-66
2023/12/23 01:47:25;;;;;;;21.80;6.88;;;;;;;-1.88;71.73;96350.94;6082556;29;20059;-65
2023/12/23 01:50:28;;;;;;;25.17;7.28;;;;;;;-1.87;71.43;96349.19;6083562;29;20425;-65
2023/12/23 01:53:31;;;;;;;24.60;8.02;;;;;;;-1.89;71.55;96341.53;6077462;29;20044;-66
2023/12/23 01:56:35;;;;;;;26.13;7.50;;;;;;;-1.91;71.37;96348.44;6093236;29;20075;-65
2023/12/23 01:59:39;;;;;;;34.85;8.85;;;;;;;-1.93;71.57;96339.03;6089351;29;20048;-66
2023/12/23 02:02:44;;;;;;;22.83;7.80;;;;;;;-1.92;71.45;96336.44;6091012;29;20044;-65
2023/12/23 02:05:48;;;;;;;25.55;9.38;;;;;;;-1.92;71.47;96346.75;6102594;29;20047;-65
2023/12/23 02:08:50;;;;;;;20.60;7.32;;;;;;;-1.96;70.64;96339.97;6088940;29;20131;-65
2023/12/23 02:12:03;;;;;;;17.25;7.97;;;;;;;-1.95;70.94;96343.38;6100653;29;20059;-67
2023/12/23 02:15:14;;;;;;;33.00;9.05;;;;;;;-1.94;70.89;96327.88;6092798;29;20064;-66
2023/12/23 02:18:19;;;;;;;35.35;9.73;;;;;;;-1.93;70.94;96329.56;6100629;29;20047;-66
2023/12/23 02:21:21;;;;;;;24.52;8.38;;;;;;;-1.91;71.40;96327.81;6100567;29;20071;-66
2023/12/23 02:24:26;;;;;;;21.30;8.30;;;;;;;-1.88;70.59;96327.72;6082852;29;20039;-65
2023/12/23 02:27:39;;;;;;;22.73;7.72;;;;;;;-1.84;71.37;96336.22;6097640;29;20047;-66
2023/12/23 02:30:46;;;;;;;16.75;7.18;;;;;;;-1.83;71.21;96336.22;6102314;29;20044;-66
2023/12/23 02:33:52;;;;;;;18.45;7.15;;;;;;;-1.83;71.21;96331.06;6105736;29;20052;-66
2023/12/23 02:37:00;;;;;;;30.13;8.98;;;;;;;-1.82;71.22;96331.91;6096683;29;20486;-67
2023/12/23 02:40:02;;;;;;;18.05;7.68;;;;;;;-1.83;71.36;96325.91;6093270;29;20047;-65
2023/12/23 02:43:06;;;;;;;17.17;8.10;;;;;;;-1.79;71.68;96330.97;6102486;29;20762;-65
2023/12/23 02:46:07;;;;;;;9.93;5.68;;;;;;;-1.82;71.29;96322.41;6101084;29;20056;-71
2023/12/23 02:49:12;;;;;;;12.65;6.28;;;;;;;-1.82;71.08;96325.00;6081795;29;20685;-66
2023/12/23 02:52:13;;;;;;;15.18;5.57;;;;;;;-1.87;70.82;96324.28;6105536;29;20172;-65
2023/12/23 02:55:18;;;;;;;16.05;6.30;;;;;;;-1.94;71.34;96321.88;6097128;29;20044;-64
2023/12/23 02:58:23;;;;;;;20.48;6.78;;;;;;;-1.86;71.76;96328.56;6096464;29;20099;-65
2023/12/23 03:01:29;;;;;;;16.05;6.38;;;;;;;-1.94;71.43;96320.16;6098340;29;20071;-65
2023/12/23 03:04:32;;;;;;;18.70;7.43;;;;;;;-1.94;71.45;96319.31;6085198;29;20723;-65
2023/12/23 03:07:34;;;;;;;14.80;6.45;;;;;;;-1.95;70.95;96323.63;6077307;29;20052;-66
2023/12/23 03:10:35;;;;;;;24.25;10.63;;;;;;;-1.92;71.04;96320.97;6098449;29;20679;-65
2023/12/23 03:13:44;;;;;;;22.65;8.80;;;;;;;-1.89;70.73;96317.47;6099603;29;20555;-65
2023/12/23 03:16:52;;;;;;;18.60;9.07;;;;;;;-1.93;71.31;96319.25;6096279;29;20427;-66
2023/12/23 03:19:58;;;;;;;13.32;7.22;;;;;;;-1.93;71.00;96324.41;6098336;29;20164;-65
2023/12/23 03:23:05;;;;;;;16.58;7.25;;;;;;;-1.99;70.79;96324.56;6098888;29;20032;-66
2023/12/23 03:26:09;;;;;;;16.40;6.70;;;;;;;-1.99;71.69;96328.88;6099521;29;20055;-65
2023/12/23 03:29:13;;;;;;;10.68;7.38;;;;;;;-1.97;71.47;96327.97;6095186;29;20052;-66
2023/12/23 03:32:17;;;;;;;10.90;7.03;;;;;;;-1.96;71.60;96327.06;6081491;29;20039;-66
2023/12/23 03:35:23;;;;;;;14.65;9.48;;;;;;;-1.92;72.17;96322.72;6098344;29;20047;-66
2023/12/23 03:38:24;;;;;;;15.60;9.13;;;;;;;-1.92;71.94;96315.81;6078897;29;20059;-66
2023/12/23 03:41:28;;;;;;;10.07;6.25;;;;;;;-1.87;72.02;96318.25;6095820;29;20040;-66
2023/12/23 03:44:30;;;;;;;10.73;5.97;;;;;;;-1.90;71.11;96311.44;6102402;29;20522;-66
2023/12/23 03:47:34;;;;;;;17.30;6.20;;;;;;;-1.88;71.44;96321.72;6095067;29;20048;-66
2023/12/23 03:50:40;;;;;;;11.50;5.90;;;;;;;-1.87;71.83;96324.28;6098106;29;20498;-65
2023/12/23 03:53:44;;;;;;;11.63;5.70;;;;;;;-1.89;71.52;96320.91;6099457;29;20106;-65
2023/12/23 03:56:54;;;;;;;19.55;6.50;;;;;;;-1.83;71.63;96325.91;6096596;29;20052;-66
2023/12/23 03:59:56;;;;;;;12.35;5.60;;;;;;;-1.87;71.87;96319.13;6096660;29;20095;-68
2023/12/23 04:03:02;;;;;;;12.98;6.32;;;;;;;-1.90;72.17;96313.19;6095419;29;20059;-66
2023/12/23 04:06:03;;;;;;;11.90;5.97;;;;;;;-1.83;71.99;96320.75;6096045;29;20055;-66
2023/12/23 04:09:09;;;;;;;11.93;5.93;;;;;;;-1.78;72.48;96310.31;6101129;29;20507;-66
2023/12/23 04:12:14;;;;;;;19.10;7.13;;;;;;;-1.77;72.14;96314.56;6099023;29;20052;-65
2023/12/23 04:15:15;;;;;;;23.17;10.02;;;;;;;-1.77;71.63;96311.16;6100421;29;20068;-65
2023/12/23 04:18:19;;;;;;;16.95;7.78;;;;;;;-1.78;72.01;96309.44;6093921;29;20052;-66
2023/12/23 04:21:21;;;;;;;18.38;7.68;;;;;;;-1.78;72.00;96306.88;6091941;29;20419;-65
2023/12/23 04:24:22;;;;;;;14.15;8.85;;;;;;;-1.75;72.52;96314.56;6102988;29;20048;-66
2023/12/23 04:27:27;;;;;;;10.57;6.90;;;;;;;-1.75;72.53;96311.97;6076489;29;20126;-66
2023/12/23 04:30:31;;;;;;;16.42;9.27;;;;;;;-1.81;72.21;96298.34;6078507;29;20052;-66
2023/12/23 04:33:37;;;;;;;7.95;5.13;;;;;;;-1.79;72.08;96298.28;6096302;29;20134;-67
2023/12/23 04:36:41;;;;;;;12.95;8.15;;;;;;;-1.79;72.62;96305.19;6098407;29;20055;-67
2023/12/23 04:39:42;;;;;;;13.55;8.02;;;;;;;-1.76;72.60;96305.09;6101912;29;20055;-66
2023/12/23 04:42:44;;;;;;;11.98;6.53;;;;;;;-1.71;72.16;96303.25;6078461;29;20087;-66
2023/12/23 04:45:50;;;;;;;;;;;;;;;-1.64;72.32;96294.50;6091621;29;20039;-65
2023/12/23 04:48:56;;;;;;;14.07;6.55;;;;;;;-1.64;71.44;96295.34;6101173;29;19922;-66
2023/12/23 04:52:00;;;;;;;11.13;4.75;;;;;;;-1.59;71.96;96292.63;6093699;29;20048;-65
2023/12/23 04:55:05;;;;;;;9.80;5.53;;;;;;;-1.61;71.89;96284.09;6096527;29;20055;-66
2023/12/23 04:58:08;;;;;;;5.55;4.47;;;;;;;-1.83;71.73;96258.84;6093156;29;20051;-66
2023/12/23 05:01:10;;;;;;;8.63;5.97;;;;;;;-1.54;71.81;96301.09;6071611;29;20139;-66
2023/12/23 05:04:11;;;;;;;6.68;4.97;;;;;;;-1.49;72.11;96285.50;6073602;29;20049;-67
2023/12/23 05:07:17;;;;;;;6.57;5.07;;;;;;;-1.42;71.70;96294.75;6073243;29;20140;-66
2023/12/23 05:10:25;;;;;;;6.75;5.25;;;;;;;-1.34;71.44;96289.38;6069559;29;20417;-66
2023/12/23 05:13:29;;;;;;;13.63;7.72;;;;;;;-1.21;71.36;96298.50;6068231;29;20710;-66
2023/12/23 05:16:30;;;;;;;6.28;4.95;;;;;;;-1.11;71.04;96305.06;6074355;29;20051;-66
2023/12/23 05:19:34;;;;;;;9.40;6.68;;;;;;;-1.27;70.58;96267.69;6070984;29;20060;-65
2023/12/23 05:22:38;;;;;;;8.88;5.38;;;;;;;-0.98;70.49;96292.69;6072228;29;20048;-67
2023/12/23 05:25:39;;;;;;;;;;;;;;;-0.81;70.49;96298.19;6070230;29;20041;-65
2023/12/23 05:28:40;;;;;;;6.50;5.03;;;;;;;-0.72;70.57;96295.34;6071766;29;19935;-67
2023/12/23 05:31:45;;;;;;;7.72;5.53;;;;;;;-0.62;69.55;96293.34;6075170;29;20044;-66
2023/12/23 05:34:46;;;;;;;6.60;5.80;;;;;;;-0.62;69.55;96277.84;6069079;29;20041;-66
2023/12/23 05:37:58;;;;;;;5.85;4.97;;;;;;;-0.64;68.39;96286.53;6076787;29;20619;-67
2023/12/23 05:41:00;;;;;;;8.00;4.78;;;;;;;-0.73;68.76;96273.00;6079644;29;20059;-66
2023/12/23 05:44:03;;;;;;;6.45;4.80;;;;;;;-0.59;69.24;96277.75;6075047;29;20052;-66
2023/12/23 05:47:07;;;;;;;6.07;4.85;;;;;;;-0.52;69.12;96271.47;6075105;29;20049;-66
2023/12/23 05:50:10;;;;;;;7.07;5.07;;;;;;;-0.40;68.81;96266.81;6079886;29;20052;-67
2023/12/23 05:53:14;;;;;;;9.75;6.00;;;;;;;-0.33;68.37;96276.09;6073434;29;20155;-65
2023/12/23 05:56:19;;;;;;;8.77;5.70;;;;;;;-0.38;68.61;96265.03;6076969;29;20044;-65
2023/12/23 05:59:21;;;;;;;6.85;5.38;;;;;;;-0.39;68.22;96258.19;6078334;29;20083;-66
2023/12/23 06:02:25;;;;;;;8.65;6.43;;;;;;;-0.36;69.28;96243.44;6090555;29;20055;-63
2023/12/23 06:05:33;;;;;;;7.80;5.35;;;;;;;-0.25;68.62;96251.69;6099070;29;20040;-64
2023/12/23 06:08:37;;;;;;;6.82;5.35;;;;;;;-0.14;68.32;96228.06;6104443;29;20048;-62
2023/12/23 06:11:38;;;;;;;8.00;5.63;;;;;;;0.05;68.26;96233.44;6103113;29;20036;-62
2023/12/23 06:14:41;;;;;;;9.40;5.32;;;;;;;0.16;67.64;96228.75;6105442;29;20417;-62
2023/12/23 06:17:50;;;;;;;8.18;5.60;;;;;;;0.24;67.35;96228.50;6096021;29;20044;-63
2023/12/23 06:20:56;;;;;;;7.82;5.10;;;;;;;0.09;67.62;96187.66;6089908;29;20097;-65
2023/12/23 06:23:58;;;;;;;9.85;5.47;;;;;;;0.30;67.20;96215.34;6086378;29;20040;-65
2023/12/23 06:27:02;;;;;;;9.85;5.60;;;;;;;0.25;66.62;96212.06;6098770;29;20043;-64
2023/12/23 06:30:07;;;;;;;16.08;6.70;;;;;;;0.31;66.18;96208.44;6097894;29;20502;-63
2023/12/23 06:33:11;;;;;;;12.23;5.53;;;;;;;0.44;66.36;96195.00;6105077;29;20584;-64
2023/12/23 06:36:17;;;;;;;10.75;5.75;;;;;;;0.37;65.69;96183.19;6098310;29;20059;-63
2023/12/23 06:39:24;;;;;;;9.45;4.93;;;;;;;0.44;65.32;96182.06;6097987;29;20047;-62
2023/12/23 06:42:29;;;;;;;9.50;3.85;;;;;;;0.46;65.67;96194.13;6095392;29;20054;-64
2023/12/23 06:45:33;;;;;;;9.38;4.25;;;;;;;0.48;65.12;96189.72;6082400;29;20056;-66
2023/12/23 06:48:34;;;;;;;8.85;5.28;;;;;;;0.41;64.70;96192.53;6102165;29;20051;-71
2023/12/23 06:51:41;;;;;;;14.13;5.38;;;;;;;0.33;64.79;96181.59;6095933;29;20067;-66
2023/12/23 06:54:44;;;;;;;9.05;4.70;;;;;;;0.26;65.33;96169.81;6096672;29;20048;-65
2023/12/23 06:57:53;;;;;;;10.25;4.05;;;;;;;0.23;65.03;96164.75;6097848;29;20720;-66
2023/12/23 07:01:00;;;;;;;7.00;4.22;;;;;;;0.12;65.29;96156.50;6098212;29;20054;-65
2023/12/23 07:04:08;;;;;;;7.15;4.47;;;;;;;0.12;65.34;96166.84;6100133;29;20040;-71
2023/12/23 07:07:14;;;;;;;9.73;4.95;;;;;;;0.01;65.10;96159.47;6076221;29;20052;-65
2023/12/23 07:10:19;;;;;;;12.25;5.60;;;;;;;-0.01;65.90;96162.09;6088639;29;20162;-65
2023/12/23 07:13:25;;;;;;;9.05;4.53;;;;;;;-0.05;65.16;96165.69;6096853;29;20442;-69
2023/12/23 07:16:26;;;;;;;7.05;4.05;;;;;;;-0.08;64.93;96165.78;6097343;29;20052;-67
2023/12/23 07:19:32;;;;;;;12.35;4.95;;;;;;;-0.10;65.24;96157.25;6093401;29;20454;-67
2023/12/23 07:22:37;;;;;;;16.42;5.72;;;;;;;-0.18;65.45;96142.88;6095990;29;20051;-65
2023/12/23 07:25:44;;;;;;;27.00;6.47;;;;;;;-0.11;65.39;96150.38;6089043;29;20467;-65
2023/12/23 07:28:48;;;;;;;22.95;7.05;;;;;;;-0.06;65.39;96148.50;6091045;29;20462;-70
2023/12/23 07:31:51;;;;;;;16.20;6.85;;;;;;;0.08;65.00;96144.56;6094504;29;20063;-69
2023/12/23 07:34:55;;;;;;;16.27;5.45;;;;;;;0.14;64.42;96134.00;6099195;29;20043;-70
2023/12/23 07:37:56;;;;;;;16.77;5.10;;;;;;;0.10;64.38;96137.59;6080889;29;20044;-69
2023/12/23 07:40:57;;;;;;;10.18;6.05;;;;;;;0.08;64.74;96131.63;6096405;29;20051;-69
2023/12/23 07:44:04;;;;;;;10.57;5.68;;;;;;;0.09;64.33;96131.59;6075612;29;20139;-68
2023/12/23 07:47:13;;;;;;;8.25;4.07;;;;;;;0.15;63.72;96125.34;6084897;29;20076;-70
2023/12/23 07:50:22;;;;;;;19.02;6.05;;;;;;;0.10;63.96;96132.44;6083412;29;20040;-69
2023/12/23 07:53:26;;;;;;;12.95;4.80;;;;;;;-0.02;63.67;96133.72;6085442;29;20627;-70
2023/12/23 07:56:32;;;;;;;20.92;5.97;;;;;;;-0.12;63.72;96128.00;6086809;29;20475;-71
2023/12/23 07:59:35;;;;;;;20.17;5.50;;;;;;;-0.15;64.05;96122.94;6087306;29;20516;-70
2023/12/23 08:02:43;;;;;;;15.55;5.45;;;;;;;-0.15;64.22;96128.09;6087752;29;20053;-71
2023/12/23 08:05:47;;;;;;;13.07;5.35;;;;;;;-0.21;63.96;96117.97;6087974;29;20391;-71
2023/12/23 08:08:54;;;;;;;18.67;5.85;;;;;;;-0.29;64.55;96104.47;6087295;29;20560;-70
2023/12/23 08:12:00;;;;;;;10.13;5.63;;;;;;;-0.31;64.63;96111.41;6090888;29;20056;-70
2023/12/23 08:15:04;;;;;;;13.55;7.43;;;;;;;-0.26;64.63;96114.69;6090091;29;20462;-70
2023/12/23 08:18:10;;;;;;;17.55;6.97;;;;;;;-0.33;65.16;96118.41;6094083;29;20052;-70
2023/12/23 08:21:18;;;;;;;12.10;7.00;;;;;;;-0.36;65.01;96103.00;6092112;29;20096;-70
2023/12/23 08:24:21;;;;;;;6.03;3.97;;;;;;;-0.32;64.76;96102.81;6091284;29;20049;-70
2023/12/23 08:27:23;;;;;;;9.90;4.93;;;;;;;-0.35;63.97;96095.19;6093597;29;20138;-70
2023/12/23 08:30:25;;;;;;;7.90;4.55;;;;;;;-0.29;65.07;96094.13;6094827;29;20062;-70
2023/12/23 08:33:29;;;;;;;8.52;4.50;;;;;;;-0.26;64.72;96100.03;6087385;29;20371;-70
2023/12/23 08:36:33;;;;;;;11.88;5.30;;;;;;;-0.33;64.21;96088.22;6088460;29;20135;-72
2023/12/23 08:39:37;;;;;;;10.65;5.18;;;;;;;-0.33;64.77;96082.22;6089556;29;20052;-69
2023/12/23 08:42:44;;;;;;;9.25;5.03;;;;;;;-0.35;64.43;96081.41;6092980;29;20048;-71
2023/12/23 08:45:46;;;;;;;9.70;4.70;;;;;;;-0.46;64.60;96077.44;6093682;29;20047;-69
2023/12/23 08:48:49;;;;;;;8.10;3.85;;;;;;;-0.65;64.45;96060.91;6092091;29;20048;-70
2023/12/23 08:51:53;;;;;;;14.88;5.03;;;;;;;-0.66;64.87;96063.53;6092279;29;20047;-71
2023/12/23 08:55:02;;;;;;;12.07;4.80;;;;;;;-0.67;64.88;96062.69;6075034;29;20131;-70
2023/12/23 08:58:14;;;;;;;16.10;5.50;;;;;;;-0.68;65.39;96056.69;6090347;29;20521;-70
2023/12/23 09:01:17;;;;;;;10.27;4.60;;;;;;;-0.69;64.75;96049.81;6085767;29;20779;-69
2023/12/23 09:04:24;;;;;;;13.57;4.93;;;;;;;-0.67;65.27;96047.19;6076093;29;20043;-70
2023/12/23 09:07:25;;;;;;;15.13;4.93;;;;;;;-0.59;64.54;96044.34;6090432;29;20060;-69
2023/12/23 09:10:26;;;;;;;16.30;4.20;;;;;;;-0.59;64.64;96044.34;6086091;29;20418;-69
2023/12/23 09:13:27;;;;;;;13.43;3.92;;;;;;;-0.70;64.93;96032.63;6082723;29;20100;-67
2023/12/23 09:16:31;;;;;;;8.68;3.92;;;;;;;-0.83;64.66;96030.50;6090351;29;20047;-66
2023/12/23 09:19:35;;;;;;;10.77;4.45;;;;;;;-0.94;65.44;96021.38;6091325;29;20048;-66
2023/12/23 09:22:41;;;;;;;9.23;4.20;;;;;;;-0.96;65.12;96018.03;6085529;29;20095;-65
2023/12/23 09:25:43;;;;;;;8.23;5.22;;;;;;;-1.02;65.64;96020.81;6088503;29;20044;-65
2023/12/23 09:28:49;;;;;;;11.13;5.18;;;;;;;-1.00;65.67;96013.84;6092290;29;20048;-65
2023/12/23 09:31:53;;;;;;;10.48;5.05;;;;;;;-1.00;65.66;95998.34;6093347;29;20055;-65
2023/12/23 09:34:57;;;;;;;14.02;6.47;;;;;;;-0.92;65.70;96011.00;6092271;29;20443;-65
2023/12/23 09:38:05;;;;;;;10.95;5.25;;;;;;;-0.87;65.71;96008.28;6094390;29;20462;-64
2023/12/23 09:41:11;;;;;;;8.65;4.45;;;;;;;-0.91;65.55;95999.78;6089610;29;20060;-65
2023/12/23 09:44:18;;;;;;;8.85;5.53;;;;;;;-0.96;65.65;96005.09;6080065;29;20044;-63
2023/12/23 09:47:20;;;;;;;6.05;4.32;;;;;;;-1.00;65.35;95998.34;6094270;29;20056;-62
2023/12/23 09:50:26;;;;;;;9.13;5.13;;;;;;;-1.08;65.43;95992.59;6095782;29;20044;-62
2023/12/23 09:53:34;;;;;;;11.77;6.22;;;;;;;-1.11;66.08;95994.44;6094954;29;22091;-63
2023/12/23 09:56:38;;;;;;;9.98;5.63;;;;;;;-1.17;66.08;95985.16;6095963;29;20700;-64
2023/12/23 09:59:39;;;;;;;7.20;5.07;;;;;;;-1.26;66.07;95962.22;6094475;29;20051;-62
2023/12/23 10:02:41;;;;;;;7.13;4.93;;;;;;;-1.29;67.17;95959.75;6097579;29;20052;-64
2023/12/23 10:05:46;;;;;;;8.15;4.28;;;;;;;-1.31;66.90;95966.69;6097552;29;20047;-62
2023/12/23 10:08:55;;;;;;;10.10;4.43;;;;;;;-1.33;67.29;95965.88;6099061;29;20056;-63
2023/12/23 10:11:56;;;;;;;8.85;4.65;;;;;;;-1.30;66.67;95963.22;6096653;29;20044;-62
2023/12/23 10:15:00;;;;;;;6.60;3.80;;;;;;;-1.29;66.11;95959.75;6095745;29;20040;-62
2023/12/23 10:18:05;;;;;;;4.80;3.17;;;;;;;-1.31;66.40;95961.53;6091500;29;20048;-63
2023/12/23 10:21:10;;;;;;;13.00;4.47;;;;;;;-1.32;66.39;95945.22;6097815;29;20048;-61
2023/12/23 10:24:11;;;;;;;7.18;3.78;;;;;;;-1.31;66.60;95940.88;6077983;29;20118;-61
2023/12/23 10:27:17;;;;;;;5.70;4.25;;;;;;;-1.30;66.61;95947.72;6094107;29;20062;-61
2023/12/23 10:30:25;;;;;;;8.90;5.07;;;;;;;-1.34;66.76;95941.00;6092584;29;20515;-62
2023/12/23 10:33:36;;;;;;;7.10;4.63;;;;;;;-1.33;67.01;95940.09;6091278;29;20040;-62
2023/12/23 10:36:44;;;;;;;8.63;4.80;;;;;;;-1.33;66.75;95938.38;6097550;29;20047;-61
2023/12/23 10:39:55;;;;;;;6.90;4.95;;;;;;;-1.37;66.67;95940.19;6094074;29;20502;-62
2023/12/23 10:43:01;;;;;;;11.15;6.03;;;;;;;-1.40;66.93;95948.03;6096551;29;20048;-63
2023/12/23 10:46:05;;;;;;;11.20;5.35;;;;;;;-1.49;67.47;95938.03;6093317;29;20056;-61
2023/12/23 10:49:10;;;;;;;9.90;6.00;;;;;;;-1.48;67.37;95950.00;6095374;29;20804;-61
2023/12/23 10:52:14;;;;;;;9.77;6.15;;;;;;;-1.46;67.56;95943.06;6093877;29;20044;-63
2023/12/23 10:55:16;;;;;;;10.48;6.30;;;;;;;-1.45;68.15;95944.75;6094598;29;20056;-62
2023/12/23 10:58:22;;;;;;;11.18;6.20;;;;;;;-1.47;67.94;95946.56;6092989;29;20047;-61
2023/12/23 11:01:31;;;;;;;13.48;7.10;;;;;;;-1.45;68.55;95960.22;6093676;29;20052;-63
2023/12/23 11:04:54;;;;;;;14.00;7.32;;;;;;;-1.50;68.49;95956.13;6093381;29;20070;-62
2023/12/23 11:08:20;;;;;;;11.57;6.18;;;;;;;-1.54;68.47;95960.53;6087287;29;20414;-62
2023/12/23 11:11:46;;;;;;;8.30;5.10;;;;;;;-1.59;68.51;95962.41;6066760;29;20071;-63
2023/12/23 11:15:08;;;;;;;9.00;5.55;;;;;;;-1.61;68.96;95959.06;6092229;29;20047;-63
2023/12/23 11:18:31;;;;;;;9.15;4.90;;;;;;;-1.65;68.19;95947.13;6092660;29;20525;-62
2023/12/23 11:22:38;;;;;;;6.78;4.80;;;;;;;-1.70;69.39;95949.00;6090876;29;20095;-62
2023/12/23 11:26:03;;;;;;;10.57;5.53;;;;;;;-1.79;68.70;95933.84;6045246;29;20040;-62
2023/12/23 11:29:08;;;;;;;9.43;5.18;;;;;;;-1.84;69.11;95937.41;6044685;29;20048;-62
2023/12/23 11:32:13;;;;;;;7.13;4.93;;;;;;;-1.94;69.24;95924.84;6091893;29;20150;-63
2023/12/23 11:35:15;;;;;;;9.10;5.57;;;;;;;-2.01;69.72;95929.31;6091679;29;20497;-63
2023/12/23 11:38:26;;;;;;;12.52;7.43;;;;;;;-2.04;69.19;95929.41;6096276;29;20043;-62
2023/12/23 11:41:29;;;;;;;9.98;6.45;;;;;;;-2.11;69.85;95922.78;6090102;29;20072;-63
2023/12/23 11:44:31;;;;;;;10.82;6.30;;;;;;;-2.07;70.22;95932.97;6096984;29;20052;-62
2023/12/23 11:47:33;;;;;;;8.38;5.18;;;;;;;-2.09;69.55;95931.31;6096240;29;20055;-62
2023/12/23 11:50:37;;;;;;;8.25;5.55;;;;;;;-2.16;70.14;95915.19;6097347;29;20044;-63
2023/12/23 11:53:39;;;;;;;9.27;5.72;;;;;;;-2.17;70.25;95928.13;6096020;29;20055;-63
2023/12/23 11:56:41;;;;;;;10.98;6.18;;;;;;;-2.21;70.16;95916.22;6096588;29;20535;-62
2023/12/23 11:59:43;;;;;;;8.35;4.70;;;;;;;-2.21;70.58;95918.78;6094559;29;20063;-62
2023/12/23 12:02:47;;;;;;;9.30;5.05;;;;;;;-2.26;70.57;95909.47;6093624;29;20048;-62
2023/12/23 12:05:56;;;;;;;7.22;3.85;;;;;;;-2.33;70.14;95902.78;6090577;29;20048;-63
2023/12/23 12:09:05;;;;;;;9.25;5.03;;;;;;;-2.39;70.32;95900.41;6095484;29;20140;-63
2023/12/23 12:12:06;;;;;;;7.57;4.30;;;;;;;-2.46;70.56;95892.91;6092539;29;20055;-63
2023/12/23 12:15:09;;;;;;;9.23;5.07;;;;;;;-2.50;70.84;95894.72;6094264;29;20180;-63
2023/12/23 12:18:15;;;;;;;7.57;4.15;;;;;;;-2.53;70.45;95890.50;6089892;29;20159;-62
2023/12/23 12:21:16;;;;;;;7.53;4.65;;;;;;;-2.60;70.77;95883.88;6088790;29;20076;-62
2023/12/23 12:24:20;;;;;;;12.95;6.88;;;;;;;-2.60;70.41;95895.91;6093792;29;20051;-62
2023/12/23 12:27:22;;;;;;;7.57;4.70;;;;;;;-2.64;70.82;95889.97;6094229;29;20056;-63
2023/12/23 12:30:29;;;;;;;9.10;5.35;;;;;;;-2.63;70.46;95885.66;6096050;29;20052;-69
2023/12/23 12:33:31;;;;;;;6.97;4.07;;;;;;;-2.65;70.41;95882.31;6094868;29;20067;-63
2023/12/23 12:36:37;;;;;;;10.40;5.55;;;;;;;-2.92;70.81;95848.72;6094426;29;20055;-64
2023/12/23 12:39:40;;;;;;;;;;;;;;;-2.72;70.48;95887.63;6095732;29;20054;-62
2023/12/23 12:42:50;;;;;;;8.80;5.15;;;;;;;-2.77;70.40;95876.63;6094175;29;20010;-63
2023/12/23 12:45:56;;;;;;;9.95;5.78;;;;;;;-2.82;70.35;95888.78;6093008;29;20068;-64
2023/12/23 12:49:06;;;;;;;8.57;5.20;;;;;;;-2.88;70.33;95873.50;6087288;29;20059;-63
2023/12/23 12:52:08;;;;;;;9.48;4.90;;;;;;;-2.91;70.26;95889.03;6094985;29;20087;-64
2023/12/23 12:55:11;;;;;;;10.05;5.18;;;;;;;-2.93;70.05;95895.94;6088739;29;20056;-63
2023/12/23 12:58:13;;;;;;;6.70;4.32;;;;;;;-3.02;70.43;95891.06;6087986;29;20181;-63
2023/12/23 13:01:19;;;;;;;9.48;5.00;;;;;;;-3.09;70.28;95894.69;6077677;29;20056;-63
2023/12/23 13:04:21;;;;;;;9.85;5.45;;;;;;;-3.20;69.83;95887.25;6090129;29;20052;-62
2023/12/23 13:07:25;;;;;;;7.88;4.80;;;;;;;-3.25;70.08;95899.41;6088933;29;20067;-64
2023/12/23 13:10:34;;;;;;;7.95;4.25;;;;;;;-3.29;70.12;95893.47;6093589;29;20453;-62
2023/12/23 13:13:43;;;;;;;8.75;5.28;;;;;;;-3.33;70.17;95897.03;6085331;29;20052;-63
2023/12/23 13:16:45;;;;;;;12.05;6.22;;;;;;;-3.36;69.83;95879.09;6084069;29;20036;-64
2023/12/23 13:19:52;;;;;;;8.93;4.88;;;;;;;-3.44;70.18;95883.59;6095928;29;20112;-65
2023/12/23 13:22:54;;;;;;;11.05;5.63;;;;;;;-3.43;70.17;95880.13;6088130;29;20196;-64
2023/12/23 13:26:01;;;;;;;11.23;5.20;;;;;;;-3.47;69.86;95876.81;6094251;29;20044;-64
2023/12/23 13:29:07;;;;;;;9.32;4.63;;;;;;;-3.51;69.86;95866.63;6094771;29;20527;-63
2023/12/23 13:32:12;;;;;;;8.80;4.97;;;;;;;-3.52;69.70;95880.38;6093690;29;20398;-63
2023/12/23 13:35:21;;;;;;;9.55;5.55;;;;;;;-3.66;69.57;95867.88;6076499;29;20048;-63
2023/12/23 13:38:27;;;;;;;10.77;5.07;;;;;;;-3.64;69.56;95895.22;6091346;29;20048;-62
2023/12/23 13:41:34;;;;;;;11.38;5.10;;;;;;;-3.75;69.68;95881.78;6094918;29;20040;-63
2023/12/23 13:44:35;;;;;;;9.45;4.80;;;;;;;-3.79;69.70;95882.75;6091805;29;20079;-63
2023/12/23 13:47:44;;;;;;;10.35;4.93;;;;;;;-3.84;69.79;95869.19;6093031;29;20051;-64
2023/12/23 13:50:50;;;;;;;11.40;5.10;;;;;;;-3.99;69.99;95861.81;6096088;29;20056;-63
2023/12/23 13:53:59;;;;;;;11.55;5.07;;;;;;;-3.95;70.00;95882.28;6083954;29;20097;-63
2023/12/23 13:57:04;;;;;;;20.15;5.93;;;;;;;-3.99;70.03;95872.97;6078886;29;20145;-63
2023/12/23 14:00:08;;;;;;;9.05;5.07;;;;;;;-4.01;69.86;95876.44;6092109;29;20059;-63
2023/12/23 14:03:09;;;;;;;16.30;6.33;;;;;;;-4.09;69.89;95874.91;6099449;29;20518;-63
2023/12/23 14:06:10;;;;;;;9.85;5.13;;;;;;;-4.15;69.99;95880.19;6074923;29;20051;-64
2023/12/23 14:09:14;;;;;;;10.05;5.00;;;;;;;-4.14;70.14;95881.84;6096496;29;20052;-63
2023/12/23 14:12:21;;;;;;;13.98;5.20;;;;;;;-4.15;70.32;95884.47;6083314;29;20052;-63
2023/12/23 14:15:25;;;;;;;7.30;4.28;;;;;;;-4.22;69.77;95878.63;6095474;29;20053;-63
2023/12/23 14:18:28;;;;;;;12.13;5.68;;;;;;;-4.23;70.09;95876.94;6098172;29;20060;-62
2023/12/23 14:21:30;;;;;;;16.25;5.18;;;;;;;-4.26;70.44;95871.03;6097899;29;20048;-63
2023/12/23 14:24:33;;;;;;;17.02;5.72;;;;;;;-4.27;69.96;95880.47;6093899;29;20111;-63
2023/12/23 14:27:34;;;;;;;15.88;5.50;;;;;;;-4.33;70.08;95865.19;6097395;29;20799;-66